Weather at Tj-Cj Private Heliport

Public forecast

Using degrees Fahrenheit for public forecast. Weather courtesy of forecast.io.

Closest aviation weather report (METAR) to Tj-Cj Private Heliport

Closest report is Randolph Air Force Base, 4.9 nm (9.2 km) NNE. Retrieved 2020/11/28 15:26 UTC (0 seconds ago):

KRND 281526Z AUTO 02010KT 7SM -RA OVC005 14/14 A3005 RMK AO2 CIG 004 RWY15R SLP174

Closest aviation forecast (TAF) to Tj-Cj Private Heliport

Forecast is more than 12 hours old.

Closest forecast is Randolph Air Force Base, 4.9 nm (9.2 km) NNE. Retrieved 2020/11/25 17:09 UTC (3 days ago):

TAF KRND 251703Z 2517/2623 02010G15KT 9999 SCT040 QNH3001INS WND 05007KT AFT 2601 TEMPO 2612/2615 BKN015 BECMG 2615/2616 15010KT 9999 SCT030 QNH3000INS TX24/2521Z TN08/2612Z LAST NO AMDS AFT 2601 NEXT 3011